createdAt,value
2019-05-17T00:00:57.379Z,78.02
2019-05-17T00:05:59.597Z,78.05
2019-05-17T00:11:01.516Z,78.24
2019-05-17T00:16:03.563Z,77.88
2019-05-17T00:21:07.534Z,78.67
2019-05-17T00:26:09.208Z,78.35
2019-05-17T00:31:11.079Z,78.82
2019-05-17T00:36:13.106Z,78.88
2019-05-17T00:41:17.484Z,78.93
2019-05-17T00:46:18.887Z,78.16
2019-05-17T00:51:20.744Z,78.62
2019-05-17T00:56:22.635Z,78.75
2019-05-17T01:01:27.021Z,77.98
2019-05-17T01:06:29.129Z,77.63
2019-05-17T01:11:31.041Z,78.25
2019-05-17T01:16:33.028Z,78.33
2019-05-17T01:21:36.733Z,78.90
2019-05-17T01:26:38.815Z,78.52
2019-05-17T01:31:40.730Z,78.57
2019-05-17T01:36:42.759Z,78.35
2019-05-17T01:41:46.677Z,78.16
2019-05-17T01:46:48.549Z,79.01
2019-05-17T01:51:50.577Z,79.08
2019-05-17T01:56:52.549Z,78.40
2019-05-17T02:01:56.606Z,78.58
2019-05-17T02:07:52.395Z,78.28
2019-05-17T02:12:56.895Z,78.60
2019-05-17T02:17:58.272Z,78.07
2019-05-17T02:23:00.316Z,78.53
2019-05-17T02:28:02.346Z,77.99
2019-05-17T02:33:04.810Z,77.66
2019-05-17T02:38:06.909Z,77.98
2019-05-17T02:43:08.838Z,78.14
2019-05-17T02:48:13.411Z,78.03
2019-05-17T02:53:14.611Z,77.89
2019-05-17T02:58:16.535Z,78.13
2019-05-17T03:03:18.492Z,78.23
2019-05-17T03:08:23.534Z,78.30
2019-05-17T03:13:24.392Z,78.68
2019-05-17T03:18:26.312Z,78.50
2019-05-17T03:23:28.225Z,78.43
2019-05-17T03:28:33.401Z,78.40
2019-05-17T03:33:36.329Z,78.57
2019-05-17T03:38:38.513Z,78.38
2019-05-17T03:43:44.295Z,76.44
2019-05-17T03:48:45.704Z,78.33
2019-05-17T03:53:47.605Z,77.68
2019-05-17T03:58:52.844Z,78.99
2019-05-17T04:03:53.481Z,79.41
2019-05-17T04:08:55.458Z,79.70
2019-05-17T04:13:57.350Z,79.08
2019-05-17T04:18:59.207Z,78.21
2019-05-17T04:24:03.203Z,78.80
2019-05-17T04:29:05.824Z,78.57
2019-05-17T04:34:07.699Z,78.69
2019-05-17T04:39:09.586Z,79.74
2019-05-17T04:44:12.863Z,79.63
2019-05-17T04:49:14.947Z,78.65
2019-05-17T04:54:16.886Z,79.19
2019-05-17T04:59:18.824Z,78.73
2019-05-17T05:04:22.573Z,79.57
2019-05-17T05:09:24.593Z,78.61
2019-05-17T05:14:26.542Z,78.14
2019-05-17T05:19:28.433Z,78.46
2019-05-17T05:24:31.525Z,78.35
2019-05-17T05:29:33.815Z,78.71
2019-05-17T05:34:35.792Z,78.65
2019-05-17T05:39:37.714Z,78.49
2019-05-17T05:44:41.557Z,77.03
2019-05-17T05:49:43.529Z,77.31
2019-05-17T05:54:45.442Z,78.26
2019-05-17T05:59:47.291Z,77.11
2019-05-17T06:04:51.850Z,78.97
2019-05-17T06:09:54.791Z,76.81
2019-05-17T06:14:56.798Z,76.51
2019-05-17T06:19:58.697Z,75.53
2019-05-17T06:25:03.869Z,74.48
2019-05-17T06:30:05.537Z,73.90
2019-05-17T06:35:09.200Z,73.80
2019-05-17T06:40:12.993Z,71.94
2019-05-17T06:45:15.697Z,71.21
2019-05-17T06:50:17.851Z,71.98
2019-05-17T06:55:19.847Z,72.19
2019-05-17T07:00:23.919Z,71.46
2019-05-17T07:05:33.934Z,70.78
2019-05-17T07:10:35.870Z,71.40
2019-05-17T07:15:44.745Z,71.88
2019-05-17T07:20:42.038Z,71.46
2019-05-17T07:25:44.017Z,71.06
2019-05-17T07:30:45.998Z,73.31
2019-05-17T07:35:49.980Z,72.00
2019-05-17T07:40:52.032Z,70.20
2019-05-17T07:45:53.941Z,70.91
2019-05-17T07:50:56.001Z,69.74
2019-05-17T07:55:59.702Z,68.91
2019-05-17T08:01:02.437Z,69.40
2019-05-17T08:06:04.554Z,70.54
2019-05-17T08:11:06.501Z,66.61
2019-05-17T08:16:10.354Z,68.67
2019-05-17T08:21:12.213Z,69.25
2019-05-17T08:26:14.273Z,66.31
2019-05-17T08:31:20.026Z,68.91
2019-05-17T08:36:21.609Z,65.41
2019-05-17T08:41:23.594Z,67.53
2019-05-17T08:46:25.470Z,67.99
2019-05-17T08:51:27.395Z,66.90
2019-05-17T08:56:30.953Z,66.32
2019-05-17T09:01:33.112Z,66.05
2019-05-17T09:06:34.974Z,65.32
2019-05-17T09:11:36.835Z,66.35
2019-05-17T09:16:40.118Z,68.11
2019-05-17T09:21:42.276Z,65.91
2019-05-17T09:26:44.305Z,65.46
2019-05-17T09:31:47.262Z,63.38
2019-05-17T09:36:49.731Z,64.38
2019-05-17T09:41:51.871Z,63.84
2019-05-17T09:46:53.797Z,63.70
2019-05-17T09:51:55.643Z,62.92
2019-05-17T09:56:57.601Z,63.82
2019-05-17T10:02:00.094Z,64.89
2019-05-17T10:07:02.154Z,63.97
2019-05-17T10:12:04.070Z,62.51
2019-05-17T10:17:05.960Z,63.85
2019-05-17T10:22:10.190Z,63.76
2019-05-17T10:27:14.478Z,64.14
2019-05-17T10:32:15.560Z,64.27
2019-05-17T10:37:20.344Z,64.27
2019-05-17T10:42:21.612Z,63.47
2019-05-17T10:47:23.772Z,62.32
2019-05-17T10:52:25.661Z,62.53
2019-05-17T10:57:30.087Z,62.09
2019-05-17T11:02:31.479Z,61.54
2019-05-17T11:07:33.322Z,62.68
2019-05-17T11:12:35.250Z,61.72
2019-05-17T11:17:37.151Z,61.40
2019-05-17T11:22:39.072Z,61.22
2019-05-17T11:27:41.086Z,60.87
2019-05-17T11:32:44.093Z,60.19
2019-05-17T11:37:46.205Z,58.79
2019-05-17T11:42:48.153Z,60.96
2019-05-17T11:47:50.146Z,59.53
2019-05-17T11:52:52.271Z,56.90
2019-05-17T11:57:56.490Z,56.85
2019-05-17T12:03:00.071Z,57.17
2019-05-17T12:08:02.098Z,57.88
2019-05-17T12:13:04.340Z,58.93
2019-05-17T12:18:06.972Z,57.92
2019-05-17T12:23:13.101Z,57.88
2019-05-17T12:28:15.357Z,60.69
2019-05-17T12:33:17.891Z,59.78
2019-05-17T12:38:22.102Z,59.91
2019-05-17T12:43:24.514Z,58.98
2019-05-17T12:48:26.677Z,59.89
2019-05-17T12:53:28.884Z,59.24
2019-05-17T12:58:31.243Z,59.67
2019-05-17T13:03:33.641Z,58.58
2019-05-17T13:08:38.609Z,59.22
2019-05-17T13:13:42.285Z,59.75
2019-05-17T13:18:44.430Z,59.33
2019-05-17T13:23:46.680Z,60.16
2019-05-17T13:28:49.238Z,61.05
2019-05-17T13:33:55.120Z,59.93
2019-05-17T13:38:57.819Z,60.07
2019-05-17T13:44:01.440Z,59.55
2019-05-17T13:54:07.185Z,59.16
2019-05-17T13:59:09.564Z,60.94
2019-05-17T14:04:11.879Z,61.69
2019-05-17T14:09:14.268Z,60.96
2019-05-17T14:14:16.559Z,62.58
2019-05-17T14:19:18.757Z,63.36
2019-05-17T14:24:21.004Z,64.67
2019-05-17T14:29:23.552Z,64.52
2019-05-17T14:34:25.999Z,64.92
2019-05-17T14:39:28.306Z,65.42
2019-05-17T14:44:30.686Z,65.33
2019-05-17T14:49:32.884Z,66.12
2019-05-17T14:54:35.131Z,65.23
2019-05-17T14:59:37.523Z,66.18
2019-05-17T15:04:39.869Z,65.61
2019-05-17T15:09:42.404Z,65.01
2019-05-17T15:14:44.547Z,65.05
2019-05-17T15:19:46.871Z,65.08
2019-05-17T15:24:49.208Z,65.79
2019-05-17T15:29:51.360Z,65.94
2019-05-17T15:34:53.748Z,67.01
2019-05-17T15:39:56.091Z,67.31
2019-05-17T15:44:58.380Z,67.85
2019-05-17T15:50:01.753Z,66.16
2019-05-17T15:55:05.658Z,67.34
2019-05-17T16:00:10.464Z,67.66
2019-05-17T16:05:13.236Z,68.14
2019-05-17T16:10:16.203Z,68.04
2019-05-17T16:15:18.335Z,68.40
2019-05-17T16:20:20.755Z,67.86
2019-05-17T16:25:23.287Z,69.04
2019-05-17T16:30:25.786Z,69.04
2019-05-17T16:35:28.224Z,68.53
2019-05-17T16:40:30.688Z,70.49
2019-05-17T16:45:33.442Z,73.46
2019-05-17T16:50:35.821Z,71.58
2019-05-17T16:55:38.341Z,74.76
2019-05-17T17:00:42.454Z,75.03
2019-05-17T17:05:44.922Z,72.48
2019-05-17T17:10:47.432Z,72.78
2019-05-17T17:15:49.872Z,73.07
2019-05-17T17:20:52.219Z,71.87
2019-05-17T17:25:55.531Z,73.66
2019-05-17T17:31:00.087Z,72.19
2019-05-17T17:36:02.393Z,73.81
2019-05-17T17:41:04.757Z,77.57
2019-05-17T17:46:07.072Z,76.80
2019-05-17T17:51:09.573Z,76.94
2019-05-17T17:56:13.672Z,74.28
2019-05-17T18:01:16.543Z,74.26
2019-05-17T18:06:18.714Z,74.18
2019-05-17T18:11:21.044Z,74.30
2019-05-17T18:16:23.358Z,72.94
2019-05-17T18:21:25.957Z,72.37
2019-05-17T18:26:27.978Z,71.51
2019-05-17T18:31:30.245Z,71.03
2019-05-17T18:36:32.727Z,70.86
2019-05-17T18:41:35.108Z,72.69
2019-05-17T18:46:37.669Z,73.62
2019-05-17T18:51:40.058Z,74.37
2019-05-17T18:56:43.523Z,74.39
2019-05-17T19:01:45.691Z,73.37
2019-05-17T19:06:50.679Z,73.99
2019-05-17T19:11:53.204Z,73.78
2019-05-17T19:16:55.839Z,75.00
2019-05-17T19:21:59.259Z,75.27
2019-05-17T19:27:01.862Z,75.79
2019-05-17T19:32:04.184Z,75.29
2019-05-17T19:37:06.737Z,75.43
2019-05-17T19:42:12.676Z,75.50
2019-05-17T19:47:15.337Z,74.97
2019-05-17T19:52:17.437Z,74.94
2019-05-17T19:57:19.996Z,75.15
2019-05-17T20:02:22.342Z,76.01
2019-05-17T20:07:24.667Z,75.35
2019-05-17T20:12:27.064Z,75.02
2019-05-17T20:17:29.331Z,74.81
2019-05-17T20:22:31.669Z,74.75
2019-05-17T20:27:34.180Z,74.96
2019-05-17T20:32:36.622Z,74.42
2019-05-17T20:37:39.285Z,74.07
2019-05-17T20:42:41.489Z,75.07
2019-05-17T20:47:43.739Z,76.18
2019-05-17T20:52:46.634Z,76.31
2019-05-17T20:57:49.178Z,76.80
2019-05-17T21:02:51.266Z,76.39
2019-05-17T21:07:54.555Z,75.85
2019-05-17T21:12:56.861Z,75.57
2019-05-17T21:17:59.436Z,74.66
2019-05-17T21:23:01.403Z,74.92
2019-05-17T21:28:03.877Z,75.49
2019-05-17T21:33:06.708Z,74.74
2019-05-17T21:38:09.222Z,75.61
2019-05-17T21:43:11.442Z,75.63
2019-05-17T21:48:13.724Z,76.30
2019-05-17T21:53:15.817Z,76.82
2019-05-17T21:58:20.439Z,77.44
2019-05-17T22:03:22.087Z,77.37
2019-05-17T22:08:24.392Z,75.71
2019-05-17T22:13:26.682Z,75.92
2019-05-17T22:18:28.958Z,76.41
2019-05-17T22:23:32.145Z,75.90
2019-05-17T22:28:34.465Z,76.48
2019-05-17T22:33:36.717Z,76.53
2019-05-17T22:38:38.978Z,75.39
2019-05-17T22:43:42.207Z,75.42
2019-05-17T22:48:44.401Z,74.80
2019-05-17T22:53:46.613Z,75.38
2019-05-17T22:58:48.927Z,76.89
2019-05-17T23:03:51.291Z,77.21
2019-05-17T23:08:53.283Z,76.82
2019-05-17T23:13:55.480Z,76.59
2019-05-17T23:19:06.022Z,76.47
2019-05-17T23:24:08.198Z,76.95
2019-05-17T23:29:10.342Z,77.41
2019-05-17T23:34:12.398Z,76.06
2019-05-17T23:39:14.693Z,77.79
2019-05-17T23:44:16.964Z,78.49
2019-05-17T23:49:19.094Z,78.55
2019-05-17T23:54:21.189Z,77.18
2019-05-17T23:59:23.683Z,77.48
